Capewater — PBPQ — position and weather

sailwx.info

Track history (hours):
 
Tides and Currents Weather Stations Pressure Air Temp Water Temp Dewpoint Dewpoint Depression Visibility Wind Speed Wind Dir Waves Ship Positions

Capewater

Last reported at 2017-Jan-15 16:33 UTC. Time now 2017-Jan-17 19:14 UTC.
Position N 50°02' W 002°04'.

Length 100 m; draft 4.9 m.

Type: Tanker. MMSI: 246346000.

Date/timePositionNaut miles runAvg speedWind from/ knotsBaromVisibWave heightAir tempDewpointWater temp
2017-Jan-15 16:33N 50°02' W 002°04'1615.7
2017-Jan-15 15:33N 49°59' W 001°40'1615.7
2017-Jan-15 14:33N 49°57' W 001°15'1414.1
2017-Jan-15 13:34N 49°50' W 000°57'1312.6
2017-Jan-15 12:33N 49°42' W 000°42'1212.1
2017-Jan-15 11:34N 49°35' W 000°26'1212.1
2017-Jan-15 10:34N 49°32' W 000°08'1211.6
2017-Jan-15 09:33N 49°28' E 000°09'2 2.4
2017-Jan-15 08:33N 49°29' E 000°12'0 0.0
2017-Jan-15 07:33N 49°29' E 000°12'0 0.0
2017-Jan-15 06:33N 49°29' E 000°12'0 0.0
2017-Jan-15 05:33N 49°29' E 000°12'0 0.0
2017-Jan-15 04:33N 49°29' E 000°12'0 0.0
2017-Jan-15 03:33N 49°29' E 000°12'0 0.0
2017-Jan-15 02:33N 49°29' E 000°12'0 0.0
2017-Jan-15 01:33N 49°29' E 000°12'0 0.0
2017-Jan-15 00:33N 49°29' E 000°12'0 0.0
2017-Jan-14 23:33N 49°29' E 000°12'0 0.0
2017-Jan-14 22:33N 49°29' E 000°12'0 0.0
2017-Jan-14 21:33N 49°29' E 000°12'0 0.0
2017-Jan-14 20:33N 49°29' E 000°12'0 0.0
2017-Jan-14 19:33N 49°29' E 000°12'0 0.0
2017-Jan-14 18:33N 49°29' E 000°12'0 0.0
2017-Jan-14 17:33N 49°29' E 000°12'0 0.0
2017-Jan-14 16:33N 49°29' E 000°12'0 0.0
2017-Jan-14 15:33N 49°29' E 000°12'0 0.0
2017-Jan-14 14:33N 49°29' E 000°12'0 0.0
2017-Jan-14 13:33N 49°29' E 000°12'0 0.0
2017-Jan-14 12:33N 49°29' E 000°12'0 0.0
2017-Jan-14 11:33N 49°29' E 000°12'0 0.0
2017-Jan-14 10:30N 49°29' E 000°12'0 0.0
2017-Jan-14 09:33N 49°29' E 000°12'0 0.0
2017-Jan-14 08:33N 49°29' E 000°12'1 1.3
2017-Jan-14 07:33N 49°29' E 000°10'3 2.8
2017-Jan-14 06:33N 49°29' E 000°06'1212.4
2017-Jan-14 05:33N 49°32' W 000°12'1211.7
2017-Jan-14 04:33N 49°36' W 000°29'3 3.1
2017-Jan-14 03:33N 49°37' W 000°34'3 0.9
2017-Jan-13 23:33N 49°39' W 000°29'2 2.0
2017-Jan-13 22:33N 49°38' W 000°27'1 1.5
2017-Jan-13 21:33N 49°37' W 000°25'1 1.0
2017-Jan-13 20:33N 49°36' W 000°24'1 0.8
2017-Jan-13 19:33N 49°35' W 000°24'2 2.4
2017-Jan-13 18:33N 49°36' W 000°28'8 7.8
2017-Jan-13 17:33N 49°40' W 000°38'7 7.1
2017-Jan-13 16:33N 49°45' W 000°46'3 3.0
2017-Jan-13 15:33N 49°42' W 000°43'4 4.5
2017-Jan-13 14:33N 49°39' W 000°38'4 4.3
2017-Jan-13 13:33N 49°36' W 000°33'3 3.1
2017-Jan-13 12:33N 49°39' W 000°36'7 7.1
2017-Jan-13 11:33N 49°43' W 000°44'10 9.8
2017-Jan-13 10:33N 49°49' W 000°56'1211.8
2017-Jan-13 09:33N 49°55' W 001°12'1413.9
2017-Jan-13 08:34N 49°55' W 001°34'1515.0
2017-Jan-13 07:33N 49°56' W 001°57'198 7.3
2017-Jan-12 04:27N 52°17' W 005°38'87 6.1
2017-Jan-11 14:20N 53°23' W 004°05'7 9.1
2017-Jan-11 13:33N 53°24' W 003°53'9 8.9
2017-Jan-11 12:33N 53°25' W 003°38'8 8.4
2017-Jan-11 11:33N 53°28' W 003°26'8 7.9
2017-Jan-11 10:33N 53°31' W 003°13'8 7.7
2017-Jan-11 09:33N 53°27' W 003°02'8 7.8
2017-Jan-11 08:33N 53°20' W 002°57'2 2.1
2017-Jan-11 07:33N 53°18' W 002°55'3 2.9
2017-Jan-11 06:32N 53°17' W 002°51'0 0.0
2017-Jan-11 05:29N 53°17' W 002°51'0 0.0
2017-Jan-11 04:32N 53°17' W 002°51'0 0.0
2017-Jan-11 03:26N 53°17' W 002°51'0 0.0
2017-Jan-11 02:32N 53°17' W 002°51'0 0.0
2017-Jan-11 01:29N 53°17' W 002°51'0 0.0
2017-Jan-11 00:29N 53°17' W 002°51'0 0.0
2017-Jan-10 23:26N 53°17' W 002°51'0 0.0
2017-Jan-10 22:29N 53°17' W 002°51'0 0.0
2017-Jan-10 21:32N 53°17' W 002°51'0 0.0
2017-Jan-10 20:32N 53°17' W 002°51'0 0.0
2017-Jan-10 19:29N 53°17' W 002°51'0 0.0
2017-Jan-10 18:29N 53°17' W 002°51'0 0.0
2017-Jan-10 17:32N 53°17' W 002°51'0 0.0
2017-Jan-10 16:32N 53°17' W 002°51'0 0.0
2017-Jan-10 15:32N 53°17' W 002°51'0 0.0
2017-Jan-10 14:29N 53°17' W 002°51'0 0.0
2017-Jan-10 13:29N 53°17' W 002°51'0 0.0
2017-Jan-10 12:32N 53°17' W 002°51'0 0.0
2017-Jan-10 11:32N 53°17' W 002°51'0 0.0
2017-Jan-10 10:32N 53°17' W 002°51'0 0.0
2017-Jan-10 09:29N 53°17' W 002°51'0 0.0
2017-Jan-10 08:32N 53°17' W 002°51'0 0.0
2017-Jan-10 07:32N 53°17' W 002°51'0 0.0
2017-Jan-10 06:32N 53°17' W 002°51'0 0.0
2017-Jan-10 05:32N 53°17' W 002°51'0 0.0
2017-Jan-10 04:33N 53°17' W 002°51'4 3.5
2017-Jan-10 03:33N 53°19' W 002°56'0 0.3
2017-Jan-10 02:31N 53°19' W 002°57'0 0.0
2017-Jan-10 01:31N 53°19' W 002°57'0 0.0
2017-Jan-10 00:28N 53°19' W 002°57'0 0.0
2017-Jan-09 23:27N 53°19' W 002°57'0 0.0
2017-Jan-09 22:34N 53°19' W 002°57'0 0.3
2017-Jan-09 21:33N 53°19' W 002°57'2 1.6
2017-Jan-09 20:33N 53°21' W 002°58'6 6.0
2017-Jan-09 19:33N 53°26' W 003°01'9 9.1
2017-Jan-09 18:34N 53°31' W 003°14'1010.3
2017-Jan-09 17:34N 53°31' W 003°32'1211.9
2017-Jan-09 16:33N 53°30' W 003°52'1310.4
2017-Jan-09 15:17N 53°27' W 004°14'810.5
2017-Jan-09 14:33N 53°30' W 004°02'1111.2
2017-Jan-09 13:33N 53°33' W 003°43'1010.2
2017-Jan-09 12:33N 53°31' W 003°27'4 3.5
2017-Jan-09 11:28N 53°28' W 003°22'0 0.1
2017-Jan-09 10:28N 53°28' W 003°22'0 0.1
2017-Jan-09 09:31N 53°29' W 003°22'0 0.0
2017-Jan-09 08:28N 53°29' W 003°22'0 0.0
2017-Jan-09 07:28N 53°28' W 003°22'0 0.0
2017-Jan-09 06:28N 53°28' W 003°22'0 0.0
2017-Jan-09 05:31N 53°28' W 003°22'0 0.0
2017-Jan-09 04:28N 53°28' W 003°22'0 0.0
2017-Jan-09 03:28N 53°28' W 003°22'0 0.0
2017-Jan-09 02:28N 53°28' W 003°22'0 0.0
2017-Jan-09 01:31N 53°28' W 003°22'0 0.1
2017-Jan-09 00:31N 53°28' W 003°22'0 0.0
2017-Jan-08 23:22N 53°28' W 003°22'0 0.0
2017-Jan-08 22:31N 53°28' W 003°22'0 0.0
2017-Jan-08 21:31N 53°28' W 003°22'0 0.0
2017-Jan-08 20:31N 53°28' W 003°22'0 0.0
2017-Jan-08 19:31N 53°28' W 003°22'0 0.0
2017-Jan-08 18:31N 53°28' W 003°22'0 0.1
2017-Jan-08 17:31N 53°28' W 003°22'0 0.0
2017-Jan-08 16:31N 53°28' W 003°22'0 0.0
2017-Jan-08 15:31N 53°28' W 003°22'0 0.0
2017-Jan-08 14:31N 53°28' W 003°22'0 0.0
2017-Jan-08 13:31N 53°28' W 003°22'0 0.1
2017-Jan-08 12:31N 53°28' W 003°22'0 0.0
2017-Jan-08 11:28N 53°28' W 003°22'0 0.0
2017-Jan-08 10:25N 53°28' W 003°22'0 0.0
2017-Jan-08 09:31N 53°28' W 003°22'0 0.0
2017-Jan-08 08:22N 53°28' W 003°22'0 0.1
2017-Jan-08 07:25N 53°28' W 003°22'0 0.0
2017-Jan-08 06:31N 53°28' W 003°22'0 0.0
2017-Jan-08 05:28N 53°28' W 003°22'0 0.0
2017-Jan-08 04:31N 53°28' W 003°22'0 0.0
2017-Jan-08 03:31N 53°28' W 003°22'0 0.0
2017-Jan-08 02:31N 53°28' W 003°22'0 0.0
2017-Jan-08 01:28N 53°28' W 003°22'0 0.1
2017-Jan-08 00:31N 53°28' W 003°22'0 0.0
2017-Jan-07 23:22N 53°28' W 003°22'0 0.0
2017-Jan-07 22:31N 53°28' W 003°22'2 1.6
2017-Jan-07 21:33N 53°29' W 003°24'1312.6
2017-Jan-07 20:33N 53°31' W 003°45'16813.5
2017-Jan-07 08:06N 51°01' W 005°52'914.3
2017-Jan-07 07:30N 50°53' W 005°53'1414.3
2017-Jan-07 06:33N 50°39' W 005°53'1414.3
2017-Jan-07 05:33N 50°25' W 005°54'1514.2
2017-Jan-07 04:29N 50°10' W 005°53'16114.6
2017-Jan-06 17:25N 47°29' W 005°33'1315.6
2017-Jan-06 16:34N 47°17' W 005°26'1615.6
2017-Jan-06 15:33N 47°02' W 005°17'  
Track history (hours):
 
Tides and Currents Weather Stations Pressure Air Temp Water Temp Dewpoint Dewpoint Depression Visibility Wind Speed Wind Dir Waves Ship Positions

Capewater

Last reported at 2017-Jan-15 16:33 UTC. Time now 2017-Jan-17 19:14 UTC.
Position N 50°02' W 002°04'.

Length 100 m; draft 4.9 m.

Type: Tanker. MMSI: 246346000.

Date/timePositionNaut miles runAvg speedWind from/ knotsBaromVisibWave heightAir tempDewpointWater temp
2017-Jan-15 16:33N 50°02' W 002°04'1615.7
2017-Jan-15 15:33N 49°59' W 001°40'1615.7
2017-Jan-15 14:33N 49°57' W 001°15'1414.1
2017-Jan-15 13:34N 49°50' W 000°57'1312.6
2017-Jan-15 12:33N 49°42' W 000°42'1212.1
2017-Jan-15 11:34N 49°35' W 000°26'1212.1
2017-Jan-15 10:34N 49°32' W 000°08'1211.6
2017-Jan-15 09:33N 49°28' E 000°09'2 2.4
2017-Jan-15 08:33N 49°29' E 000°12'0 0.0
2017-Jan-15 07:33N 49°29' E 000°12'0 0.0
2017-Jan-15 06:33N 49°29' E 000°12'0 0.0
2017-Jan-15 05:33N 49°29' E 000°12'0 0.0
2017-Jan-15 04:33N 49°29' E 000°12'0 0.0
2017-Jan-15 03:33N 49°29' E 000°12'0 0.0
2017-Jan-15 02:33N 49°29' E 000°12'0 0.0
2017-Jan-15 01:33N 49°29' E 000°12'0 0.0
2017-Jan-15 00:33N 49°29' E 000°12'0 0.0
2017-Jan-14 23:33N 49°29' E 000°12'0 0.0
2017-Jan-14 22:33N 49°29' E 000°12'0 0.0
2017-Jan-14 21:33N 49°29' E 000°12'0 0.0
2017-Jan-14 20:33N 49°29' E 000°12'0 0.0
2017-Jan-14 19:33N 49°29' E 000°12'0 0.0
2017-Jan-14 18:33N 49°29' E 000°12'0 0.0
2017-Jan-14 17:33N 49°29' E 000°12'0 0.0
2017-Jan-14 16:33N 49°29' E 000°12'0 0.0
2017-Jan-14 15:33N 49°29' E 000°12'0 0.0
2017-Jan-14 14:33N 49°29' E 000°12'0 0.0
2017-Jan-14 13:33N 49°29' E 000°12'0 0.0
2017-Jan-14 12:33N 49°29' E 000°12'0 0.0
2017-Jan-14 11:33N 49°29' E 000°12'0 0.0
2017-Jan-14 10:30N 49°29' E 000°12'0 0.0
2017-Jan-14 09:33N 49°29' E 000°12'0 0.0
2017-Jan-14 08:33N 49°29' E 000°12'1 1.3
2017-Jan-14 07:33N 49°29' E 000°10'3 2.8
2017-Jan-14 06:33N 49°29' E 000°06'1212.4
2017-Jan-14 05:33N 49°32' W 000°12'1211.7
2017-Jan-14 04:33N 49°36' W 000°29'3 3.1
2017-Jan-14 03:33N 49°37' W 000°34'3 0.9
2017-Jan-13 23:33N 49°39' W 000°29'2 2.0
2017-Jan-13 22:33N 49°38' W 000°27'1 1.5
2017-Jan-13 21:33N 49°37' W 000°25'1 1.0
2017-Jan-13 20:33N 49°36' W 000°24'1 0.8
2017-Jan-13 19:33N 49°35' W 000°24'2 2.4
2017-Jan-13 18:33N 49°36' W 000°28'8 7.8
2017-Jan-13 17:33N 49°40' W 000°38'7 7.1
2017-Jan-13 16:33N 49°45' W 000°46'3 3.0
2017-Jan-13 15:33N 49°42' W 000°43'4 4.5
2017-Jan-13 14:33N 49°39' W 000°38'4 4.3
2017-Jan-13 13:33N 49°36' W 000°33'3 3.1
2017-Jan-13 12:33N 49°39' W 000°36'7 7.1
2017-Jan-13 11:33N 49°43' W 000°44'10 9.8
2017-Jan-13 10:33N 49°49' W 000°56'1211.8
2017-Jan-13 09:33N 49°55' W 001°12'1413.9
2017-Jan-13 08:34N 49°55' W 001°34'1515.0
2017-Jan-13 07:33N 49°56' W 001°57'198 7.3
2017-Jan-12 04:27N 52°17' W 005°38'87 6.1
2017-Jan-11 14:20N 53°23' W 004°05'7 9.1
2017-Jan-11 13:33N 53°24' W 003°53'9 8.9
2017-Jan-11 12:33N 53°25' W 003°38'8 8.4
2017-Jan-11 11:33N 53°28' W 003°26'8 7.9
2017-Jan-11 10:33N 53°31' W 003°13'8 7.7
2017-Jan-11 09:33N 53°27' W 003°02'8 7.8
2017-Jan-11 08:33N 53°20' W 002°57'2 2.1
2017-Jan-11 07:33N 53°18' W 002°55'3 2.9
2017-Jan-11 06:32N 53°17' W 002°51'0 0.0
2017-Jan-11 05:29N 53°17' W 002°51'0 0.0
2017-Jan-11 04:32N 53°17' W 002°51'0 0.0
2017-Jan-11 03:26N 53°17' W 002°51'0 0.0
2017-Jan-11 02:32N 53°17' W 002°51'0 0.0
2017-Jan-11 01:29N 53°17' W 002°51'0 0.0
2017-Jan-11 00:29N 53°17' W 002°51'0 0.0
2017-Jan-10 23:26N 53°17' W 002°51'0 0.0
2017-Jan-10 22:29N 53°17' W 002°51'0 0.0
2017-Jan-10 21:32N 53°17' W 002°51'0 0.0
2017-Jan-10 20:32N 53°17' W 002°51'0 0.0
2017-Jan-10 19:29N 53°17' W 002°51'0 0.0
2017-Jan-10 18:29N 53°17' W 002°51'0 0.0
2017-Jan-10 17:32N 53°17' W 002°51'0 0.0
2017-Jan-10 16:32N 53°17' W 002°51'0 0.0
2017-Jan-10 15:32N 53°17' W 002°51'0 0.0
2017-Jan-10 14:29N 53°17' W 002°51'0 0.0
2017-Jan-10 13:29N 53°17' W 002°51'0 0.0
2017-Jan-10 12:32N 53°17' W 002°51'0 0.0
2017-Jan-10 11:32N 53°17' W 002°51'0 0.0
2017-Jan-10 10:32N 53°17' W 002°51'0 0.0
2017-Jan-10 09:29N 53°17' W 002°51'0 0.0
2017-Jan-10 08:32N 53°17' W 002°51'0 0.0
2017-Jan-10 07:32N 53°17' W 002°51'0 0.0
2017-Jan-10 06:32N 53°17' W 002°51'0 0.0
2017-Jan-10 05:32N 53°17' W 002°51'0 0.0
2017-Jan-10 04:33N 53°17' W 002°51'4 3.5
2017-Jan-10 03:33N 53°19' W 002°56'0 0.3
2017-Jan-10 02:31N 53°19' W 002°57'0 0.0
2017-Jan-10 01:31N 53°19' W 002°57'0 0.0
2017-Jan-10 00:28N 53°19' W 002°57'0 0.0
2017-Jan-09 23:27N 53°19' W 002°57'0 0.0
2017-Jan-09 22:34N 53°19' W 002°57'0 0.3
2017-Jan-09 21:33N 53°19' W 002°57'2 1.6
2017-Jan-09 20:33N 53°21' W 002°58'6 6.0
2017-Jan-09 19:33N 53°26' W 003°01'9 9.1
2017-Jan-09 18:34N 53°31' W 003°14'1010.3
2017-Jan-09 17:34N 53°31' W 003°32'1211.9
2017-Jan-09 16:33N 53°30' W 003°52'1310.4
2017-Jan-09 15:17N 53°27' W 004°14'810.5
2017-Jan-09 14:33N 53°30' W 004°02'1111.2
2017-Jan-09 13:33N 53°33' W 003°43'1010.2
2017-Jan-09 12:33N 53°31' W 003°27'4 3.5
2017-Jan-09 11:28N 53°28' W 003°22'0 0.1
2017-Jan-09 10:28N 53°28' W 003°22'0 0.1
2017-Jan-09 09:31N 53°29' W 003°22'0 0.0
2017-Jan-09 08:28N 53°29' W 003°22'0 0.0
2017-Jan-09 07:28N 53°28' W 003°22'0 0.0
2017-Jan-09 06:28N 53°28' W 003°22'0 0.0
2017-Jan-09 05:31N 53°28' W 003°22'0 0.0
2017-Jan-09 04:28N 53°28' W 003°22'0 0.0
2017-Jan-09 03:28N 53°28' W 003°22'0 0.0
2017-Jan-09 02:28N 53°28' W 003°22'0 0.0
2017-Jan-09 01:31N 53°28' W 003°22'0 0.1
2017-Jan-09 00:31N 53°28' W 003°22'0 0.0
2017-Jan-08 23:22N 53°28' W 003°22'0 0.0
2017-Jan-08 22:31N 53°28' W 003°22'0 0.0
2017-Jan-08 21:31N 53°28' W 003°22'0 0.0
2017-Jan-08 20:31N 53°28' W 003°22'0 0.0
2017-Jan-08 19:31N 53°28' W 003°22'0 0.0
2017-Jan-08 18:31N 53°28' W 003°22'0 0.1
2017-Jan-08 17:31N 53°28' W 003°22'0 0.0
2017-Jan-08 16:31N 53°28' W 003°22'0 0.0
2017-Jan-08 15:31N 53°28' W 003°22'0 0.0
2017-Jan-08 14:31N 53°28' W 003°22'0 0.0
2017-Jan-08 13:31N 53°28' W 003°22'0 0.1
2017-Jan-08 12:31N 53°28' W 003°22'0 0.0
2017-Jan-08 11:28N 53°28' W 003°22'0 0.0
2017-Jan-08 10:25N 53°28' W 003°22'0 0.0
2017-Jan-08 09:31N 53°28' W 003°22'0 0.0
2017-Jan-08 08:22N 53°28' W 003°22'0 0.1
2017-Jan-08 07:25N 53°28' W 003°22'0 0.0
2017-Jan-08 06:31N 53°28' W 003°22'0 0.0
2017-Jan-08 05:28N 53°28' W 003°22'0 0.0
2017-Jan-08 04:31N 53°28' W 003°22'0 0.0
2017-Jan-08 03:31N 53°28' W 003°22'0 0.0
2017-Jan-08 02:31N 53°28' W 003°22'0 0.0
2017-Jan-08 01:28N 53°28' W 003°22'0 0.1
2017-Jan-08 00:31N 53°28' W 003°22'0 0.0
2017-Jan-07 23:22N 53°28' W 003°22'0 0.0
2017-Jan-07 22:31N 53°28' W 003°22'2 1.6
2017-Jan-07 21:33N 53°29' W 003°24'1312.6
2017-Jan-07 20:33N 53°31' W 003°45'16813.5
2017-Jan-07 08:06N 51°01' W 005°52'914.3
2017-Jan-07 07:30N 50°53' W 005°53'1414.3
2017-Jan-07 06:33N 50°39' W 005°53'1414.3
2017-Jan-07 05:33N 50°25' W 005°54'1514.2
2017-Jan-07 04:29N 50°10' W 005°53'16114.6
2017-Jan-06 17:25N 47°29' W 005°33'1315.6
2017-Jan-06 16:34N 47°17' W 005°26'1615.6
2017-Jan-06 15:33N 47°02' W 005°17'  

Dump ship's entire track history